Time;durP1;ratioP1;P1;durP2;ratioP2;P2;SDS_P1;SDS_P2;PMS_P1;PMS_P2;Temp;Humidity;BMP_temperature;BMP_pressure;BME280_temperature;BME280_humidity;BME280_pressure;Samples;Min_cycle;Max_cycle;Signal;HPM_P1;HPM_P2
2023/10/09 00:03:12;;;;;;;7.53;4.00;;;13.70;99.90;;;;;;5088510;28;20623;-62
2023/10/09 00:05:45;;;;;;;6.63;4.20;;;13.70;99.90;;;;;;5088181;28;20219;-62
2023/10/09 00:08:16;;;;;;;8.83;4.33;;;13.70;99.90;;;;;;5088399;28;20277;-62
2023/10/09 00:10:49;;;;;;;10.13;4.30;;;13.70;99.90;;;;;;5082907;28;20220;-63
2023/10/09 00:13:16;;;;;;;12.33;4.20;;;13.70;99.90;;;;;;5068022;28;20209;-63
2023/10/09 00:15:45;;;;;;;8.23;4.30;;;13.70;99.90;;;;;;5091422;22;20228;-57
2023/10/09 00:18:14;;;;;;;9.50;4.63;;;13.70;99.90;;;;;;5057433;28;20211;-57
2023/10/09 00:20:42;;;;;;;9.40;4.03;;;13.70;99.90;;;;;;5056142;28;20255;-59
2023/10/09 00:23:14;;;;;;;8.90;4.67;;;13.70;99.90;;;;;;5057127;28;20232;-58
2023/10/09 00:25:46;;;;;;;7.67;3.93;;;13.70;99.90;;;;;;5059357;28;20232;-57
2023/10/09 00:28:15;;;;;;;8.37;4.37;;;13.70;99.90;;;;;;5057032;28;20209;-58
2023/10/09 00:30:42;;;;;;;10.67;4.60;;;13.70;99.90;;;;;;5055598;28;20209;-58
2023/10/09 00:33:11;;;;;;;8.27;4.43;;;13.70;99.90;;;;;;5056682;28;20578;-58
2023/10/09 00:35:46;;;;;;;7.13;4.17;;;13.70;99.90;;;;;;5058997;28;20221;-58
2023/10/09 00:38:23;;;;;;;7.33;4.27;;;13.80;99.90;;;;;;5057341;28;20591;-58
2023/10/09 00:40:57;;;;;;;9.37;4.33;;;13.80;99.90;;;;;;5055856;28;20232;-58
2023/10/09 00:43:28;;;;;;;7.97;4.40;;;13.80;99.90;;;;;;5059224;28;20208;-58
2023/10/09 00:45:55;;;;;;;7.93;4.00;;;13.90;99.90;;;;;;5058971;28;20558;-57
2023/10/09 00:48:30;;;;;;;6.70;4.43;;;13.90;99.90;;;;;;5055968;28;20540;-58
2023/10/09 00:51:00;;;;;;;6.67;3.77;;;13.90;99.90;;;;;;5055202;28;20229;-57
2023/10/09 00:53:32;;;;;;;7.60;4.20;;;13.90;99.90;;;;;;5055172;28;20271;-57
2023/10/09 00:56:11;;;;;;;7.47;4.53;;;14.00;99.90;;;;;;5055135;28;20628;-58
2023/10/09 00:58:40;;;;;;;6.37;3.70;;;14.10;99.90;;;;;;5054903;28;20627;-57
2023/10/09 01:01:15;;;;;;;11.40;4.10;;;14.10;99.90;;;;;;5055814;28;20293;-58
2023/10/09 01:03:44;;;;;;;10.87;4.40;;;14.00;99.90;;;;;;5058475;28;20731;-57
2023/10/09 01:06:20;;;;;;;8.50;3.97;;;14.10;99.90;;;;;;5056943;28;20266;-57
2023/10/09 01:08:56;;;;;;;9.33;4.40;;;14.10;99.90;;;;;;5055044;28;20220;-57
2023/10/09 01:11:29;;;;;;;7.87;4.20;;;14.20;99.90;;;;;;5057740;28;20619;-57
2023/10/09 01:14:11;;;;;;;7.80;4.07;;;14.20;99.90;;;;;;5048320;28;20220;-57
2023/10/09 01:16:39;;;;;;;10.63;3.93;;;14.20;99.90;;;;;;5041266;28;20222;-58
2023/10/09 01:19:13;;;;;;;10.20;4.50;;;14.20;99.90;;;;;;5041741;28;20668;-58
2023/10/09 01:21:41;;;;;;;10.77;4.30;;;14.20;99.90;;;;;;5044866;28;20235;-57
2023/10/09 01:24:09;;;;;;;7.67;4.20;;;14.20;99.90;;;;;;5044010;28;20459;-57
2023/10/09 01:26:44;;;;;;;8.90;4.53;;;14.20;99.90;;;;;;5041418;28;20279;-58
2023/10/09 01:29:16;;;;;;;11.60;4.50;;;14.20;99.90;;;;;;5042329;28;20201;-60
2023/10/09 01:31:46;;;;;;;7.60;4.03;;;14.30;99.90;;;;;;5044666;28;20643;-57
2023/10/09 01:34:14;;;;;;;11.67;4.27;;;14.20;99.90;;;;;;5043251;28;20213;-57
2023/10/09 01:36:41;;;;;;;9.10;3.83;;;14.20;99.90;;;;;;5041242;28;20248;-57
2023/10/09 01:39:10;;;;;;;8.80;4.23;;;14.20;99.90;;;;;;5041817;28;20209;-59
2023/10/09 01:41:46;;;;;;;9.47;4.93;;;14.20;99.90;;;;;;5044854;28;20312;-58
2023/10/09 01:44:16;;;;;;;10.17;4.33;;;14.20;99.90;;;;;;5043132;28;20295;-58
2023/10/09 01:46:45;;;;;;;11.03;4.57;;;14.20;99.90;;;;;;5041117;28;20222;-57
2023/10/09 01:49:17;;;;;;;12.87;4.50;;;14.20;99.90;;;;;;5042688;28;20621;-58
2023/10/09 01:51:44;;;;;;;10.13;4.13;;;14.10;99.90;;;;;;5045045;28;20209;-57
2023/10/09 01:54:27;;;;;;;12.83;4.80;;;14.10;99.90;;;;;;5042950;28;20206;-57
2023/10/09 01:56:56;;;;;;;8.93;3.67;;;14.20;99.90;;;;;;5041011;28;20633;-58
2023/10/09 01:59:23;;;;;;;8.83;4.13;;;14.20;99.90;;;;;;5043433;28;20240;-58
2023/10/09 02:01:49;;;;;;;9.83;4.20;;;14.20;99.90;;;;;;5044325;28;20232;-57
2023/10/09 02:04:19;;;;;;;11.47;4.97;;;14.10;99.90;;;;;;5042251;28;20316;-57
2023/10/09 02:06:46;;;;;;;8.93;4.20;;;14.10;99.90;;;;;;5040333;28;20306;-57
2023/10/09 02:09:25;;;;;;;7.83;3.90;;;14.10;99.90;;;;;;5041478;28;20269;-58
2023/10/09 02:11:52;;;;;;;10.63;4.37;;;14.10;99.90;;;;;;5044122;28;20198;-58
2023/10/09 02:14:24;;;;;;;11.30;4.20;;;14.10;99.90;;;;;;5041605;28;20214;-58
2023/10/09 02:17:07;;;;;;;7.60;4.33;;;14.20;99.90;;;;;;5040529;28;20321;-58
2023/10/09 02:19:35;;;;;;;8.90;4.37;;;14.20;99.90;;;;;;5040748;28;20305;-57
2023/10/09 02:22:12;;;;;;;9.33;4.33;;;14.20;99.90;;;;;;5040393;28;20695;-57
2023/10/09 02:24:49;;;;;;;9.40;4.07;;;14.20;99.90;;;;;;5039452;28;20232;-56
2023/10/09 02:27:20;;;;;;;13.00;4.37;;;14.20;99.90;;;;;;5041752;28;20624;-57
2023/10/09 02:29:47;;;;;;;8.87;4.53;;;14.10;99.90;;;;;;5043356;28;20206;-58
2023/10/09 02:32:16;;;;;;;8.03;4.33;;;14.50;99.90;;;;;;5042074;28;20624;-58
2023/10/09 02:34:46;;;;;;;13.33;4.77;;;14.30;99.90;;;;;;5039993;28;20274;-60
2023/10/09 02:37:14;;;;;;;6.20;4.03;;;14.30;99.90;;;;;;5040403;28;20666;-57
2023/10/09 02:39:48;;;;;;;10.80;4.43;;;14.40;99.90;;;;;;5043005;28;20201;-57
2023/10/09 02:42:23;;;;;;;10.40;4.83;;;14.40;99.90;;;;;;5041048;28;20224;-57
2023/10/09 02:44:51;;;;;;;11.30;4.80;;;14.40;99.90;;;;;;5039336;28;20620;-57
2023/10/09 02:47:20;;;;;;;8.83;5.07;;;14.40;99.90;;;;;;5040975;28;20210;-59
2023/10/09 02:49:50;;;;;;;11.80;5.00;;;14.40;99.90;;;;;;5043084;28;20198;-57
2023/10/09 02:52:19;;;;;;;8.40;4.43;;;14.40;99.90;;;;;;5041036;28;20209;-58
2023/10/09 02:54:47;;;;;;;10.90;5.10;;;14.40;99.90;;;;;;5038869;28;20272;-57
2023/10/09 02:57:21;;;;;;;13.57;5.33;;;14.40;99.90;;;;;;5040410;28;20260;-57
2023/10/09 02:59:51;;;;;;;8.13;4.17;;;14.40;99.90;;;;;;5042706;28;20271;-58
2023/10/09 03:02:18;;;;;;;10.00;4.70;;;14.50;99.90;;;;;;5040375;28;20635;-58
2023/10/09 03:04:45;;;;;;;10.53;4.60;;;14.50;99.90;;;;;;5038882;28;20210;-59
2023/10/09 03:07:13;;;;;;;7.67;4.40;;;14.50;99.90;;;;;;5039422;28;20206;-58
2023/10/09 03:09:40;;;;;;;12.53;4.30;;;14.60;99.90;;;;;;5042631;28;20201;-58
2023/10/09 03:12:12;;;;;;;9.30;4.27;;;14.50;99.90;;;;;;5041947;28;20202;-57
2023/10/09 03:14:42;;;;;;;9.67;4.00;;;14.50;99.90;;;;;;5039200;28;20212;-57
2023/10/09 03:17:11;;;;;;;9.43;4.20;;;14.50;99.90;;;;;;5039670;28;20210;-58
2023/10/09 03:19:38;;;;;;;11.03;4.60;;;14.50;99.90;;;;;;5042831;28;20256;-58
2023/10/09 03:22:09;;;;;;;10.40;4.27;;;14.60;99.90;;;;;;5042946;28;20304;-59
2023/10/09 03:24:36;;;;;;;12.30;4.43;;;14.50;99.90;;;;;;5039802;28;20297;-57
2023/10/09 03:27:03;;;;;;;9.33;4.30;;;14.50;99.90;;;;;;5039113;28;20226;-58
2023/10/09 03:29:31;;;;;;;10.07;4.57;;;14.50;99.90;;;;;;5042355;28;20663;-57
2023/10/09 03:32:00;;;;;;;12.17;4.57;;;14.50;99.90;;;;;;5042423;28;20208;-58
2023/10/09 03:34:27;;;;;;;9.80;4.83;;;14.50;99.90;;;;;;5039664;28;20684;-58
2023/10/09 03:37:03;;;;;;;12.80;5.23;;;14.50;99.90;;;;;;5038726;28;20683;-58
2023/10/09 03:39:40;;;;;;;12.03;4.80;;;14.50;99.90;;;;;;5042538;28;20209;-58
2023/10/09 03:42:11;;;;;;;11.13;4.60;;;14.50;99.90;;;;;;5041867;28;20688;-57
2023/10/09 03:44:43;;;;;;;12.50;6.10;;;14.50;99.90;;;;;;5039069;28;20202;-57
2023/10/09 03:47:11;;;;;;;15.87;8.47;;;14.60;99.90;;;;;;5039218;28;20210;-57
2023/10/09 03:49:39;;;;;;;8.77;4.60;;;14.60;99.90;;;;;;5042438;28;20201;-58
2023/10/09 03:52:08;;;;;;;16.13;8.53;;;14.70;99.90;;;;;;5042224;28;20705;-57
2023/10/09 03:54:35;;;;;;;11.87;6.07;;;14.70;99.90;;;;;;5038972;28;20206;-59
2023/10/09 03:57:02;;;;;;;9.83;5.73;;;14.70;99.90;;;;;;5038450;28;20269;-58
2023/10/09 03:59:31;;;;;;;15.47;5.23;;;14.80;99.90;;;;;;5042099;28;20205;-59
2023/10/09 04:02:00;;;;;;;10.23;5.17;;;14.80;99.90;;;;;;5042263;28;20218;-57
2023/10/09 04:04:28;;;;;;;15.83;5.50;;;14.80;99.90;;;;;;5039531;28;20301;-57
2023/10/09 04:06:55;;;;;;;16.33;9.97;;;14.80;99.90;;;;;;5038366;28;20493;-58
2023/10/09 04:09:39;;;;;;;23.87;14.97;;;14.80;99.90;;;;;;5040643;28;20206;-58
2023/10/09 04:12:24;;;;;;;10.17;5.90;;;14.80;99.90;;;;;;5041848;28;20658;-57
2023/10/09 04:14:54;;;;;;;13.93;7.17;;;14.80;99.90;;;;;;5038386;28;20202;-58
2023/10/09 04:17:34;;;;;;;11.10;6.20;;;14.80;99.90;;;;;;5040294;28;20210;-58
2023/10/09 04:22:50;;;;;;;10.20;5.60;;;14.80;99.90;;;;;;5038126;28;20718;-57
2023/10/09 04:25:25;;;;;;;16.10;8.90;;;14.80;99.90;;;;;;5039913;28;20610;-57
2023/10/09 04:27:53;;;;;;;14.73;7.53;;;14.70;99.90;;;;;;5041651;28;20193;-57
2023/10/09 04:30:19;;;;;;;12.60;5.80;;;14.70;99.90;;;;;;5039746;28;20343;-57
2023/10/09 04:32:49;;;;;;;11.70;5.30;;;14.70;99.90;;;;;;5038014;28;20264;-56
2023/10/09 04:35:24;;;;;;;11.30;4.87;;;14.60;99.90;;;;;;5039937;28;20230;-57
2023/10/09 04:38:03;;;;;;;13.13;4.63;;;14.60;99.90;;;;;;5042228;28;20255;-58
2023/10/09 04:40:48;;;;;;;7.80;4.30;;;14.50;99.90;;;;;;5038512;28;20225;-59
2023/10/09 04:43:20;;;;;;;10.73;4.70;;;14.40;99.90;;;;;;5038475;28;20222;-58
2023/10/09 04:46:07;;;;;;;15.00;6.73;;;14.40;99.90;;;;;;5040959;28;20697;-58
2023/10/09 04:48:37;;;;;;;14.17;4.97;;;14.40;99.90;;;;;;5039018;28;20241;-58
2023/10/09 04:51:34;;;;;;;14.00;4.83;;;14.40;99.90;;;;;;5041564;28;20315;-57
2023/10/09 04:54:12;;;;;;;10.47;4.97;;;14.30;99.90;;;;;;5041552;28;20256;-58
2023/10/09 04:56:51;;;;;;;12.57;4.40;;;14.40;99.90;;;;;;5041189;28;20271;-58
2023/10/09 04:59:19;;;;;;;15.67;4.90;;;14.40;99.90;;;;;;5042360;28;20296;-58
2023/10/09 05:01:57;;;;;;;11.70;4.90;;;14.30;99.90;;;;;;5044387;28;20209;-58
2023/10/09 05:04:39;;;;;;;13.10;4.87;;;14.40;99.90;;;;;;5042300;28;20391;-58
2023/10/09 05:07:22;;;;;;;11.93;4.53;;;14.30;99.90;;;;;;5041189;28;20540;-57
2023/10/09 05:10:14;;;;;;;12.13;4.43;;;14.40;99.90;;;;;;5041237;28;20221;-58
2023/10/09 05:12:46;;;;;;;13.87;5.13;;;14.40;99.90;;;;;;5040807;28;20673;-58
2023/10/09 05:15:14;;;;;;;12.10;5.47;;;14.40;99.90;;;;;;5040986;28;20230;-58
2023/10/09 05:17:43;;;;;;;14.87;4.70;;;14.40;99.90;;;;;;5044178;28;20608;-57
2023/10/09 05:22:58;;;;;;;17.87;6.73;;;14.40;99.90;;;;;;5040790;28;20229;-57
2023/10/09 05:25:55;;;;;;;13.03;6.13;;;14.40;99.90;;;;;;5042872;28;20234;-58
2023/10/09 05:28:48;;;;;;;12.23;5.30;;;14.40;99.90;;;;;;5041984;28;20221;-57
2023/10/09 05:31:44;;;;;;;10.07;4.80;;;14.50;99.90;;;;;;5041636;28;20206;-58
2023/10/09 05:34:03;;;;;;;13.43;4.40;;;14.50;99.90;;;;;;5043991;28;20275;-58
2023/10/09 05:36:35;;;;;;;11.17;4.40;;;14.40;99.90;;;;;;5041047;28;20222;-57
2023/10/09 05:41:52;;;;;;;17.87;6.00;;;14.40;99.90;;;;;;5040295;28;20206;-59
2023/10/09 05:49:54;;;;;;;13.20;5.27;;;14.50;99.90;;;;;;5040326;28;20295;-58
2023/10/09 05:55:48;;;;;;;9.87;4.80;;;14.40;99.90;;;;;;5041737;28;20237;-58
2023/10/09 06:03:49;;;;;;;9.10;4.40;;;14.50;99.90;;;;;;5040526;28;20229;-58
2023/10/09 06:06:32;;;;;;;16.37;4.70;;;14.60;99.90;;;;;;5040993;28;20295;-59
2023/10/09 06:11:49;;;;;;;13.60;4.93;;;14.80;99.90;;;;;;5040537;28;20213;-59
2023/10/09 06:14:24;;;;;;;15.43;4.30;;;14.90;99.90;;;;;;5041131;28;20213;-59
2023/10/09 06:17:00;;;;;;;18.87;4.97;;;14.90;99.90;;;;;;5043741;28;20224;-58
2023/10/09 06:19:27;;;;;;;13.47;4.27;;;15.00;99.90;;;;;;5041267;28;20312;-58
2023/10/09 06:24:42;;;;;;;16.70;4.97;;;15.10;99.90;;;;;;5016432;28;20225;-59
2023/10/09 06:27:14;;;;;;;15.20;4.97;;;15.20;99.90;;;;;;5039830;28;20218;-59
2023/10/09 06:29:51;;;;;;;18.93;5.40;;;15.20;99.90;;;;;;5040202;28;20206;-59
2023/10/09 06:32:37;;;;;;;10.90;4.27;;;15.30;99.90;;;;;;5040791;28;20278;-59
2023/10/09 06:35:16;;;;;;;16.58;4.72;;;15.40;99.90;;;;;;5042939;28;20225;-59
2023/10/09 06:43:15;;;;;;;17.77;5.13;;;15.70;99.90;;;;;;5043064;28;20227;-61
2023/10/09 06:45:45;;;;;;;15.60;5.57;;;15.80;99.90;;;;;;5039300;28;20272;-59
2023/10/09 06:51:03;;;;;;;13.68;4.70;;;15.90;99.90;;;;;;5042033;28;20205;-58
2023/10/09 06:56:24;;;;;;;14.85;4.18;;;16.00;99.90;;;;;;5038045;28;20232;-59
2023/10/09 06:58:50;;;;;;;19.55;5.93;;;16.10;99.90;;;;;;5042678;28;20209;-59
2023/10/09 07:01:28;;;;;;;12.50;4.85;;;16.20;99.90;;;;;;5041755;28;20579;-60
2023/10/09 07:03:59;;;;;;;14.85;4.50;;;16.20;99.90;;;;;;5039307;28;20217;-59
2023/10/09 07:06:48;;;;;;;11.37;4.50;;;16.30;99.90;;;;;;5040921;28;20230;-58
2023/10/09 07:09:18;;;;;;;14.55;5.65;;;16.30;99.90;;;;;;5041640;28;20277;-58
2023/10/09 07:12:09;;;;;;;11.70;4.00;;;16.30;99.90;;;;;;5039212;28;20210;-58
2023/10/09 07:17:26;;;;;;;18.50;5.35;;;16.50;99.90;;;;;;5041425;28;20208;-59
2023/10/09 07:20:12;;;;;;;13.18;4.63;;;16.50;99.90;;;;;;5039521;28;20668;-59
2023/10/09 07:22:53;;;;;;;15.80;4.68;;;16.60;99.90;;;;;;5039240;28;20294;-60
2023/10/09 07:25:41;;;;;;;11.60;4.38;;;16.70;99.90;;;;;;5040141;28;20276;-59
2023/10/09 07:28:36;;;;;;;14.73;5.55;;;16.80;99.90;;;;;;5042539;28;20206;-59
2023/10/09 07:31:03;;;;;;;10.50;5.05;;;16.90;99.90;;;;;;5039091;28;20205;-60
2023/10/09 07:33:51;;;;;;;11.93;4.40;;;17.00;99.90;;;;;;5041251;28;20202;-62
2023/10/09 07:36:29;;;;;;;13.60;4.85;;;17.10;99.90;;;;;;5041583;28;20687;-62
2023/10/09 07:38:59;;;;;;;15.43;4.82;;;17.20;99.90;;;;;;5038689;28;20672;-62
2023/10/09 07:41:37;;;;;;;18.88;5.60;;;17.30;99.90;;;;;;5040830;28;20210;-62
2023/10/09 07:44:33;;;;;;;20.73;8.63;;;17.50;99.90;;;;;;5042617;28;20228;-62
2023/10/09 07:47:14;;;;;;;19.05;5.93;;;17.60;99.90;;;;;;5039151;28;20280;-62
2023/10/09 07:49:42;;;;;;;13.48;4.75;;;17.80;99.90;;;;;;5038858;28;20213;-63
2023/10/09 07:52:09;;;;;;;17.33;5.88;;;17.90;99.90;;;;;;5038690;28;20260;-62
2023/10/09 07:54:36;;;;;;;19.67;5.30;;;18.00;99.90;;;;;;5041673;28;20283;-61
2023/10/09 07:57:15;;;;;;;24.60;5.28;;;18.20;99.90;;;;;;5042100;28;20225;-63
2023/10/09 07:59:54;;;;;;;17.10;5.28;;;18.30;99.90;;;;;;5038839;28;20212;-61
2023/10/09 08:02:31;;;;;;;14.52;5.28;;;18.30;99.90;;;;;;5039605;28;20205;-62
2023/10/09 08:05:03;;;;;;;13.05;4.82;;;18.50;99.90;;;;;;5041912;28;20224;-63
2023/10/09 08:07:35;;;;;;;11.90;4.45;;;18.60;99.90;;;;;;5039206;28;20208;-62
2023/10/09 08:12:59;;;;;;;16.55;4.95;;;18.90;99.90;;;;;;5038470;28;20284;-62
2023/10/09 08:15:34;;;;;;;14.82;4.93;;;19.00;99.90;;;;;;5039778;28;20737;-62
2023/10/09 08:18:09;;;;;;;18.45;4.70;;;18.90;99.90;;;;;;5035752;28;20202;-62
2023/10/09 08:21:19;;;;;;;12.63;4.45;;;18.90;99.90;;;;;;5041536;28;20204;-64
2023/10/09 08:23:46;;;;;;;17.45;4.80;;;19.00;99.90;;;;;;5040663;28;20225;-61
2023/10/09 08:26:13;;;;;;;12.20;4.63;;;19.10;99.90;;;;;;5042247;28;20359;-62
2023/10/09 08:28:39;;;;;;;18.23;5.40;;;19.20;99.90;;;;;;5042357;28;20214;-62
2023/10/09 08:31:34;;;;;;;15.50;5.18;;;19.30;99.90;;;;;;5042209;28;20620;-62
2023/10/09 08:34:00;;;;;;;11.43;4.60;;;19.60;99.90;;;;;;5042056;28;20648;-63
2023/10/09 08:36:35;;;;;;;16.00;4.60;;;19.80;99.90;;;;;;5043828;28;20225;-63
2023/10/09 08:39:15;;;;;;;13.18;4.85;;;20.00;99.90;;;;;;5045549;28;20247;-63
2023/10/09 08:41:42;;;;;;;14.07;4.63;;;20.10;99.90;;;;;;5042237;28;20206;-62
2023/10/09 08:44:12;;;;;;;12.63;4.35;;;20.20;99.90;;;;;;5041527;28;20222;-62
2023/10/09 08:46:42;;;;;;;12.07;5.18;;;20.30;99.90;;;;;;5044964;28;20236;-62
2023/10/09 08:49:10;;;;;;;14.23;5.13;;;20.40;99.90;;;;;;5045775;28;20314;-62
2023/10/09 08:51:38;;;;;;;13.10;4.47;;;20.50;99.90;;;;;;5042359;28;20206;-62
2023/10/09 08:54:11;;;;;;;14.48;4.97;;;20.60;99.90;;;;;;5042134;28;20203;-62
2023/10/09 08:56:39;;;;;;;11.60;4.47;;;20.70;99.90;;;;;;5045170;28;20666;-63
2023/10/09 08:59:06;;;;;;;13.98;4.95;;;20.80;99.90;;;;;;5045032;28;20205;-63
2023/10/09 09:01:34;;;;;;;17.15;4.25;;;20.80;99.90;;;;;;5042592;28;20201;-63
2023/10/09 09:04:02;;;;;;;15.68;4.88;;;20.70;99.90;;;;;;5041811;28;20731;-63
2023/10/09 09:06:38;;;;;;;19.10;4.88;;;20.80;99.90;;;;;;5043200;28;20222;-63
2023/10/09 09:09:13;;;;;;;15.98;5.55;;;20.80;99.90;;;;;;5045456;28;20220;-62
2023/10/09 09:11:48;;;;;;;18.42;5.50;;;20.60;99.90;;;;;;5041627;28;20202;-63
2023/10/09 09:14:18;;;;;;;17.65;5.60;;;20.60;99.90;;;;;;5041533;28;20209;-62
2023/10/09 09:16:48;;;;;;;21.40;5.35;;;20.80;99.90;;;;;;5044576;28;20711;-63
2023/10/09 09:19:18;;;;;;;15.02;5.20;;;21.00;99.90;;;;;;5044854;28;20274;-63
2023/10/09 09:21:54;;;;;;;14.80;4.90;;;21.20;99.90;;;;;;5041697;28;20206;-62
2023/10/09 09:24:31;;;;;;;17.95;5.47;;;21.40;99.90;;;;;;5041709;28;20271;-62
2023/10/09 09:27:09;;;;;;;10.88;4.80;;;21.50;99.90;;;;;;5044608;28;20286;-62
2023/10/09 09:29:40;;;;;;;18.40;5.30;;;21.50;99.90;;;;;;5041835;28;20268;-62
2023/10/09 09:32:17;;;;;;;12.82;5.03;;;21.50;99.90;;;;;;5041252;28;20219;-62
2023/10/09 09:34:54;;;;;;;13.50;4.38;;;21.60;99.90;;;;;;5040581;28;20263;-64
2023/10/09 09:37:21;;;;;;;16.45;4.93;;;21.70;99.90;;;;;;5041607;28;20599;-63
2023/10/09 09:39:50;;;;;;;18.65;5.28;;;22.00;99.90;;;;;;5044638;28;20209;-63
2023/10/09 09:42:24;;;;;;;14.23;4.45;;;22.20;99.90;;;;;;5044192;28;20209;-63
2023/10/09 09:44:52;;;;;;;19.13;5.05;;;22.50;99.90;;;;;;5040971;28;20214;-64
2023/10/09 09:47:26;;;;;;;18.75;5.13;;;22.80;99.90;;;;;;5041071;28;20206;-64
2023/10/09 09:49:59;;;;;;;21.88;5.15;;;23.00;99.90;;;;;;5044145;28;20753;-66
2023/10/09 09:52:27;;;;;;;16.02;4.78;;;23.10;99.90;;;;;;5042809;28;20213;-64
2023/10/09 09:54:54;;;;;;;18.92;6.07;;;23.20;99.90;;;;;;5040692;28;20738;-63
2023/10/09 09:57:26;;;;;;;21.35;5.38;;;23.30;99.90;;;;;;5041334;28;20202;-64
2023/10/09 09:59:55;;;;;;;18.80;5.43;;;23.40;99.90;;;;;;5044072;28;20616;-64
2023/10/09 10:02:28;;;;;;;16.17;4.50;;;23.40;99.90;;;;;;5043603;28;20293;-63
2023/10/09 10:04:59;;;;;;;15.93;5.47;;;23.50;99.90;;;;;;5040177;28;20601;-64
2023/10/09 10:07:29;;;;;;;18.52;4.82;;;23.50;99.90;;;;;;5041588;28;20218;-64
2023/10/09 10:09:57;;;;;;;14.38;4.07;;;23.60;99.90;;;;;;5043724;28;20205;-64
2023/10/09 10:13:00;;;;;;;15.98;5.07;;;23.70;99.90;;;;;;5042318;28;20201;-63
2023/10/09 10:15:56;;;;;;;15.05;4.70;;;23.90;99.90;;;;;;5041464;28;20299;-63
2023/10/09 10:18:23;;;;;;;14.57;4.90;;;24.00;99.90;;;;;;5042551;28;20210;-64
2023/10/09 10:21:16;;;;;;;18.80;5.60;;;24.00;99.90;;;;;;5040327;28;20202;-60
2023/10/09 10:23:46;;;;;;;14.25;4.75;;;24.20;99.90;;;;;;5040341;28;20218;-62
2023/10/09 10:26:26;;;;;;;20.77;4.50;;;24.40;99.90;;;;;;5040065;28;20672;-65
2023/10/09 10:29:22;;;;;;;17.55;5.00;;;24.70;99.90;;;;;;5039794;28;20206;-65
2023/10/09 10:31:57;;;;;;;13.32;4.53;;;24.90;99.90;;;;;;5040043;28;20285;-64
2023/10/09 10:34:25;;;;;;;18.63;4.35;;;25.10;99.90;;;;;;5041061;28;20631;-62
2023/10/09 10:36:59;;;;;;;16.20;4.18;;;25.40;99.90;;;;;;5043566;28;20257;-61
2023/10/09 10:45:34;;;;;;;26.85;4.90;;;25.90;99.90;;;;;;5083912;28;20571;-63
2023/10/09 10:48:06;;;;;;;18.23;5.00;;;26.20;99.90;;;;;;5061942;28;20238;-61
2023/10/09 10:50:35;;;;;;;14.77;5.10;;;26.40;99.90;;;;;;5078551;28;20239;-62
2023/10/09 10:53:17;;;;;;;18.27;5.15;;;26.40;99.90;;;;;;5079788;28;20639;-61
2023/10/09 10:55:56;;;;;;;20.65;6.65;;;26.40;99.90;;;;;;5071176;28;20612;-61
2023/10/09 10:58:35;;;;;;;25.23;7.60;;;26.50;99.90;;;;;;5079045;28;20207;-61
2023/10/09 11:01:11;;;;;;;20.00;5.32;;;26.40;99.90;;;;;;5075917;28;20642;-60
2023/10/09 11:03:54;;;;;;;18.33;5.00;;;26.00;99.90;;;;;;5078648;28;20603;-59
2023/10/09 11:06:35;;;;;;;15.93;4.88;;;25.80;99.90;;;;;;5078777;28;20244;-60
2023/10/09 11:09:09;;;;;;;14.68;4.55;;;25.80;99.90;;;;;;5075913;28;20208;-59
2023/10/09 11:11:41;;;;;;;21.70;5.10;;;26.00;99.90;;;;;;5077826;28;20205;-59
2023/10/09 11:14:14;;;;;;;16.95;4.95;;;26.30;99.90;;;;;;5079702;28;20200;-61
2023/10/09 11:16:41;;;;;;;20.48;4.85;;;26.60;99.90;;;;;;5075698;28;20603;-62
2023/10/09 11:19:22;;;;;;;18.80;4.68;;;26.70;99.90;;;;;;5075527;28;20212;-60
2023/10/09 11:21:58;;;;;;;22.65;4.75;;;26.80;99.90;;;;;;5075674;28;20296;-60
2023/10/09 11:24:25;;;;;;;24.27;4.55;;;27.00;99.40;;;;;;5076068;28;20224;-60
2023/10/09 11:26:55;;;;;;;21.40;4.80;;;27.00;98.10;;;;;;5078880;28;20305;-61
2023/10/09 11:29:52;;;;;;;20.73;4.80;;;27.20;98.00;;;;;;5078077;28;20626;-60
2023/10/09 11:32:22;;;;;;;22.13;4.25;;;27.30;98.00;;;;;;5075159;28;20704;-60
2023/10/09 11:34:51;;;;;;;13.40;4.28;;;27.40;97.80;;;;;;5050703;28;20197;-63
2023/10/09 11:37:38;;;;;;;21.85;5.15;;;27.50;97.50;;;;;;5074748;28;20200;-60
2023/10/09 11:40:21;;;;;;;16.27;4.63;;;27.60;97.00;;;;;;5061369;28;20205;-60
2023/10/09 11:42:50;;;;;;;19.27;4.43;;;27.40;97.10;;;;;;5070720;28;20215;-59
2023/10/09 11:45:28;;;;;;;17.88;5.95;;;27.10;98.30;;;;;;5078554;28;20235;-59
2023/10/09 11:47:59;;;;;;;25.33;5.60;;;26.80;99.90;;;;;;5059356;28;20211;-60
2023/10/09 11:50:50;;;;;;;21.40;6.15;;;26.60;99.90;;;;;;5076222;28;20216;-60
2023/10/09 11:53:33;;;;;;;19.95;5.78;;;26.30;99.90;;;;;;5078395;28;20270;-59
2023/10/09 11:56:00;;;;;;;15.68;5.93;;;26.20;99.90;;;;;;5049941;28;20247;-59
2023/10/09 11:58:27;;;;;;;19.85;5.45;;;26.10;99.90;;;;;;5062262;28;20293;-58
2023/10/09 12:00:56;;;;;;;23.75;5.50;;;26.00;99.90;;;;;;5064920;28;20201;-61
2023/10/09 12:03:28;;;;;;;17.90;5.28;;;26.10;99.90;;;;;;5064366;28;20319;-60
2023/10/09 12:05:56;;;;;;;20.05;4.35;;;26.10;99.90;;;;;;5061390;28;20234;-59
2023/10/09 12:08:26;;;;;;;21.02;5.20;;;26.10;99.90;;;;;;5061321;28;20302;-60
2023/10/09 12:10:54;;;;;;;20.13;6.15;;;26.00;99.90;;;;;;5068346;28;20671;-62
2023/10/09 12:13:22;;;;;;;24.23;7.97;;;26.00;99.90;;;;;;5061269;28;20205;-59
2023/10/09 12:15:49;;;;;;;22.08;8.82;;;25.90;99.90;;;;;;5064389;28;20290;-59
2023/10/09 12:18:15;;;;;;;24.13;8.30;;;25.80;99.90;;;;;;5064450;28;20205;-60
2023/10/09 12:20:50;;;;;;;23.08;9.02;;;25.80;99.90;;;;;;5061274;28;20202;-59
2023/10/09 12:23:18;;;;;;;21.05;7.55;;;25.70;99.90;;;;;;5061009;28;20232;-60
2023/10/09 12:25:45;;;;;;;23.92;6.32;;;25.60;99.90;;;;;;5063809;28;20579;-59
2023/10/09 12:28:13;;;;;;;25.50;6.13;;;25.40;99.90;;;;;;5064202;28;20700;-60
2023/10/09 12:30:41;;;;;;;22.17;6.00;;;25.30;99.90;;;;;;5061633;28;20209;-60
2023/10/09 12:33:09;;;;;;;24.75;5.93;;;25.40;99.90;;;;;;5060810;28;20233;-60
2023/10/09 12:35:40;;;;;;;24.27;5.40;;;25.60;99.90;;;;;;5062583;28;20229;-60
2023/10/09 12:38:12;;;;;;;22.63;6.13;;;25.90;99.90;;;;;;5063849;28;20240;-63
2023/10/09 12:40:41;;;;;;;19.00;5.85;;;26.10;99.90;;;;;;5061798;28;20311;-59
2023/10/09 12:43:15;;;;;;;24.92;6.03;;;26.30;99.90;;;;;;5060504;28;20269;-59
2023/10/09 12:45:42;;;;;;;12.10;4.32;;;26.50;99.90;;;;;;5063126;28;20623;-61
2023/10/09 12:48:09;;;;;;;15.10;4.30;;;26.60;99.20;;;;;;5063589;28;20567;-60
2023/10/09 12:50:41;;;;;;;16.00;4.32;;;26.80;98.60;;;;;;5061821;28;20598;-60
2023/10/09 12:53:10;;;;;;;15.63;4.47;;;26.90;98.10;;;;;;5060610;28;20209;-60
2023/10/09 12:55:40;;;;;;;26.98;4.75;;;26.90;98.00;;;;;;5061978;28;20225;-59
2023/10/09 12:58:07;;;;;;;19.35;4.75;;;27.00;97.90;;;;;;5064045;28;20595;-60
2023/10/09 13:00:37;;;;;;;15.48;4.90;;;27.00;96.90;;;;;;5061852;28;20289;-59
2023/10/09 13:03:13;;;;;;;17.48;5.18;;;27.10;96.00;;;;;;5060095;28;20241;-60
2023/10/09 13:05:51;;;;;;;21.02;5.75;;;27.20;95.90;;;;;;5062752;28;20221;-59
2023/10/09 13:08:21;;;;;;;14.18;5.10;;;27.20;96.00;;;;;;5062669;28;20304;-59
2023/10/09 13:10:54;;;;;;;17.00;4.70;;;27.30;95.40;;;;;;5063617;28;20675;-61
2023/10/09 13:13:22;;;;;;;18.67;4.70;;;27.40;94.70;;;;;;5063392;28;20236;-62
2023/10/09 13:15:49;;;;;;;19.23;4.65;;;27.60;92.90;;;;;;5055056;28;20213;-60
2023/10/09 13:18:15;;;;;;;17.35;4.80;;;27.80;92.40;;;;;;5063362;28;20220;-61
2023/10/09 13:20:42;;;;;;;15.98;4.15;;;28.00;91.70;;;;;;5060910;28;20212;-60
2023/10/09 13:23:14;;;;;;;18.58;4.28;;;28.00;91.30;;;;;;5059754;28;20214;-60
2023/10/09 13:25:44;;;;;;;13.23;4.22;;;28.00;90.30;;;;;;5062170;28;20611;-60
2023/10/09 13:28:11;;;;;;;12.85;4.88;;;28.00;88.90;;;;;;5062964;28;20213;-60
2023/10/09 13:30:48;;;;;;;14.55;5.20;;;27.90;89.70;;;;;;5061218;28;20300;-63
2023/10/09 13:33:16;;;;;;;14.93;4.88;;;27.90;87.20;;;;;;5059668;28;20706;-60
2023/10/09 13:35:50;;;;;;;10.75;4.22;;;27.70;81.10;;;;;;5062266;28;20231;-60
2023/10/09 13:38:17;;;;;;;12.50;4.35;;;27.50;84.50;;;;;;5062914;28;20205;-61
2023/10/09 13:40:45;;;;;;;10.68;4.68;;;27.40;86.20;;;;;;5059868;28;20209;-60
2023/10/09 13:43:16;;;;;;;13.82;4.72;;;27.30;84.60;;;;;;5059628;28;20325;-61
2023/10/09 13:45:49;;;;;;;9.23;4.68;;;27.20;82.50;;;;;;5061996;28;20252;-62
2023/10/09 13:48:17;;;;;;;10.52;5.07;;;27.20;80.90;;;;;;5062773;28;20300;-62
2023/10/09 13:50:44;;;;;;;14.55;5.78;;;27.10;79.40;;;;;;5060252;28;20231;-61
2023/10/09 13:53:12;;;;;;;11.38;4.90;;;27.10;80.10;;;;;;5059539;28;20218;-61
2023/10/09 13:55:43;;;;;;;12.98;5.43;;;27.00;79.30;;;;;;5061514;28;20221;-61
2023/10/09 13:58:13;;;;;;;11.00;5.05;;;26.90;78.30;;;;;;5062727;28;20204;-61
2023/10/09 14:00:42;;;;;;;13.73;6.53;;;26.70;78.70;;;;;;5060432;28;20251;-65